createdAt,value
2019-05-26T00:00:34.930Z,80.60
2019-05-26T00:03:08.580Z,79.97
2019-05-26T00:05:41.047Z,80.20
2019-05-26T00:08:13.315Z,79.78
2019-05-26T00:10:45.803Z,80.26
2019-05-26T00:13:18.271Z,80.10
2019-05-26T00:15:50.965Z,79.97
2019-05-26T00:18:23.340Z,80.69
2019-05-26T00:20:56.120Z,80.97
2019-05-26T00:23:29.681Z,81.32
2019-05-26T00:26:02.241Z,81.36
2019-05-26T00:28:34.785Z,81.02
2019-05-26T00:31:07.450Z,80.59
2019-05-26T00:33:40.075Z,80.32
2019-05-26T00:36:12.695Z,79.98
2019-05-26T00:38:45.175Z,79.96
2019-05-26T00:41:17.820Z,79.83
2019-05-26T00:43:50.524Z,79.92
2019-05-26T00:46:23.055Z,79.74
2019-05-26T00:48:55.580Z,79.30
2019-05-26T00:51:28.483Z,79.54
2019-05-26T00:54:01.093Z,79.46
2019-05-26T00:56:33.710Z,79.24
2019-05-26T00:59:06.630Z,79.03
2019-05-26T01:01:39.226Z,78.50
2019-05-26T01:04:11.825Z,78.81
2019-05-26T01:06:44.295Z,78.90
2019-05-26T01:09:17.520Z,78.83
2019-05-26T01:11:51.474Z,78.42
2019-05-26T01:14:24.008Z,78.37
2019-05-26T01:16:57.975Z,77.65
2019-05-26T01:19:32.010Z,77.87
2019-05-26T01:22:06.130Z,77.81
2019-05-26T01:24:39.985Z,77.49
2019-05-26T01:27:12.715Z,77.41
2019-05-26T01:29:45.309Z,77.38
2019-05-26T01:32:17.730Z,77.34
2019-05-26T01:34:50.168Z,77.83
2019-05-26T01:37:22.771Z,77.41
2019-05-26T01:39:55.665Z,77.79
2019-05-26T01:42:28.236Z,77.58
2019-05-26T01:45:00.757Z,77.75
2019-05-26T01:47:34.645Z,77.29
2019-05-26T01:50:08.539Z,77.29
2019-05-26T01:52:41.118Z,77.28
2019-05-26T01:55:13.544Z,77.47
2019-05-26T01:57:46.375Z,77.38
2019-05-26T02:00:19.005Z,77.32
2019-05-26T02:02:51.815Z,77.12
2019-05-26T02:05:24.193Z,76.86
2019-05-26T02:07:56.935Z,76.85
2019-05-26T02:10:29.709Z,77.06
2019-05-26T02:13:02.135Z,77.20
2019-05-26T02:15:34.748Z,77.70
2019-05-26T02:18:07.863Z,77.53
2019-05-26T02:20:40.425Z,77.61
2019-05-26T02:23:13.165Z,77.69
2019-05-26T02:25:45.586Z,77.60
2019-05-26T02:28:17.990Z,77.75
2019-05-26T02:30:50.432Z,77.80
2019-05-26T02:33:22.921Z,77.61
2019-05-26T02:35:55.386Z,77.65
2019-05-26T02:38:27.851Z,77.67
2019-05-26T02:41:00.316Z,77.83
2019-05-26T02:43:33.210Z,77.79
2019-05-26T02:46:06.235Z,77.76
2019-05-26T02:48:38.755Z,77.82
2019-05-26T02:51:11.136Z,77.63
2019-05-26T02:53:43.601Z,77.72
2019-05-26T02:56:16.283Z,77.72
2019-05-26T02:58:48.850Z,77.49
2019-05-26T03:01:21.765Z,77.12
2019-05-26T03:03:55.056Z,76.63
2019-05-26T03:06:29.690Z,76.99
2019-05-26T03:09:21.172Z,76.80
2019-05-26T03:11:41.057Z,76.59
2019-05-26T03:14:14.614Z,76.48
2019-05-26T03:16:48.672Z,76.75
2019-05-26T03:19:21.380Z,76.34
2019-05-26T03:21:56.749Z,76.44
2019-05-26T03:24:30.932Z,76.20
2019-05-26T03:27:03.392Z,76.49
2019-05-26T03:29:35.905Z,76.30
2019-05-26T03:32:08.593Z,76.10
2019-05-26T03:34:41.281Z,75.75
2019-05-26T03:37:13.796Z,75.60
2019-05-26T03:39:46.712Z,75.90
2019-05-26T03:42:19.276Z,76.26
2019-05-26T03:44:51.735Z,76.44
2019-05-26T03:47:24.141Z,76.04
2019-05-26T03:49:56.757Z,75.91
2019-05-26T03:52:29.365Z,75.14
2019-05-26T03:55:02.106Z,75.06
2019-05-26T03:57:35.163Z,74.47
2019-05-26T04:00:09.685Z,74.99
2019-05-26T04:02:42.166Z,74.20
2019-05-26T04:05:15.710Z,73.94
2019-05-26T04:07:48.092Z,73.81
2019-05-26T04:10:20.807Z,74.33
2019-05-26T04:12:53.141Z,73.86
2019-05-26T04:15:26.331Z,74.10
2019-05-26T04:17:58.746Z,74.05
2019-05-26T04:20:31.352Z,73.51
2019-05-26T04:23:04.201Z,74.47
2019-05-26T04:25:37.011Z,73.64
2019-05-26T04:28:09.565Z,73.16
2019-05-26T04:30:41.950Z,74.14
2019-05-26T04:33:14.610Z,74.40
2019-05-26T04:35:47.027Z,73.21
2019-05-26T04:38:19.465Z,72.94
2019-05-26T04:40:51.860Z,72.23
2019-05-26T04:43:24.401Z,71.98
2019-05-26T04:45:56.796Z,71.79
2019-05-26T04:48:29.354Z,71.80
2019-05-26T04:51:02.727Z,72.01
2019-05-26T04:53:35.712Z,71.13
2019-05-26T04:56:08.145Z,71.26
2019-05-26T04:58:40.672Z,70.64
2019-05-26T05:01:13.076Z,69.98
2019-05-26T05:03:45.516Z,69.03
2019-05-26T05:06:17.980Z,68.79
2019-05-26T05:08:50.706Z,68.73
2019-05-26T05:11:23.285Z,67.81
2019-05-26T05:13:55.815Z,66.82
2019-05-26T05:16:28.590Z,66.84
2019-05-26T05:19:00.989Z,67.21
2019-05-26T05:21:33.535Z,66.29
2019-05-26T05:24:06.010Z,66.05
2019-05-26T05:26:38.635Z,65.32
2019-05-26T05:29:11.063Z,64.51
2019-05-26T05:31:43.621Z,61.27
2019-05-26T05:34:16.131Z,58.43
2019-05-26T05:36:48.754Z,59.09
2019-05-26T05:39:21.275Z,61.39
2019-05-26T05:41:53.866Z,61.33
2019-05-26T05:44:26.560Z,62.13
2019-05-26T05:46:59.077Z,62.06
2019-05-26T05:49:31.489Z,60.90
2019-05-26T05:52:05.430Z,61.36
2019-05-26T05:54:38.094Z,59.98
2019-05-26T05:57:10.750Z,61.83
2019-05-26T05:59:43.110Z,60.10
2019-05-26T06:02:15.518Z,62.18
2019-05-26T06:04:48.080Z,59.89
2019-05-26T06:07:20.905Z,58.73
2019-05-26T06:09:54.135Z,58.27
2019-05-26T06:12:26.625Z,58.92
2019-05-26T06:14:59.090Z,60.16
2019-05-26T06:17:31.890Z,59.48
2019-05-26T06:20:06.132Z,58.25
2019-05-26T06:22:38.770Z,57.92
2019-05-26T06:25:11.575Z,57.79
2019-05-26T06:27:44.292Z,56.22
2019-05-26T06:30:17.400Z,56.28
2019-05-26T06:32:50.030Z,56.37
2019-05-26T06:35:22.580Z,56.29
2019-05-26T06:37:55.140Z,56.42
2019-05-26T06:40:27.673Z,55.64
2019-05-26T06:43:00.491Z,52.80
2019-05-26T06:45:34.014Z,51.37
2019-05-26T06:48:06.575Z,51.79
2019-05-26T06:50:39.045Z,51.15
2019-05-26T06:53:11.745Z,50.59
2019-05-26T06:55:44.116Z,49.71
2019-05-26T06:58:16.860Z,48.04
2019-05-26T07:00:49.590Z,47.75
2019-05-26T07:03:22.278Z,47.89
2019-05-26T07:05:55.125Z,46.81
2019-05-26T07:08:27.875Z,45.01
2019-05-26T07:11:00.751Z,45.40
2019-05-26T07:13:33.255Z,45.82
2019-05-26T07:16:06.625Z,42.26
2019-05-26T07:18:39.082Z,44.29
2019-05-26T07:21:11.850Z,44.01
2019-05-26T07:23:44.310Z,45.06
2019-05-26T07:26:16.815Z,44.81
2019-05-26T07:28:49.745Z,44.50
2019-05-26T07:31:22.733Z,42.19
2019-05-26T07:33:55.367Z,43.71
2019-05-26T07:36:27.999Z,42.74
2019-05-26T07:39:00.580Z,42.77
2019-05-26T07:41:33.290Z,41.81
2019-05-26T07:44:05.966Z,39.92
2019-05-26T07:46:38.515Z,39.41
2019-05-26T07:49:10.895Z,39.73
2019-05-26T07:51:44.750Z,39.54
2019-05-26T07:54:25.716Z,38.90
2019-05-26T07:56:51.716Z,39.26
2019-05-26T07:59:24.106Z,40.13
2019-05-26T08:01:56.740Z,40.40
2019-05-26T08:04:29.440Z,41.05
2019-05-26T08:07:01.898Z,39.37
2019-05-26T08:09:34.492Z,39.11
2019-05-26T08:12:07.495Z,37.54
2019-05-26T08:14:39.905Z,38.52
2019-05-26T08:17:12.586Z,37.62
2019-05-26T08:19:45.110Z,38.29
2019-05-26T08:22:17.655Z,39.48
2019-05-26T08:24:50.412Z,40.15
2019-05-26T08:27:24.180Z,38.58
2019-05-26T08:29:57.135Z,39.71
2019-05-26T08:32:29.660Z,41.17
2019-05-26T08:35:02.176Z,39.07
2019-05-26T08:37:35.651Z,38.00
2019-05-26T08:40:21.196Z,37.09
2019-05-26T08:42:54.351Z,38.76
2019-05-26T08:45:27.010Z,36.75
2019-05-26T08:47:59.615Z,35.51
2019-05-26T08:50:34.481Z,34.74
2019-05-26T08:53:06.526Z,35.92
2019-05-26T08:55:39.310Z,35.43
2019-05-26T08:58:11.976Z,34.59
2019-05-26T09:00:44.440Z,35.38
2019-05-26T09:03:17.115Z,36.10
2019-05-26T09:05:50.210Z,35.85
2019-05-26T09:08:22.547Z,34.55
2019-05-26T09:10:55.205Z,33.75
2019-05-26T09:13:27.965Z,35.97
2019-05-26T09:16:00.460Z,35.03
2019-05-26T09:18:33.008Z,34.30
2019-05-26T09:21:05.775Z,34.25
2019-05-26T09:23:38.355Z,34.87
2019-05-26T09:26:11.070Z,34.60
2019-05-26T09:28:45.056Z,35.39
2019-05-26T09:31:17.781Z,36.37
2019-05-26T09:33:50.403Z,33.88
2019-05-26T09:36:22.960Z,33.49
2019-05-26T09:38:55.405Z,36.18
2019-05-26T09:41:28.010Z,36.80
2019-05-26T09:44:00.570Z,37.24
2019-05-26T09:46:33.037Z,35.72
2019-05-26T09:49:05.772Z,35.86
2019-05-26T09:51:38.412Z,36.42
2019-05-26T09:54:12.705Z,35.57
2019-05-26T09:56:45.130Z,35.10
2019-05-26T09:59:17.801Z,35.23
2019-05-26T10:01:50.179Z,34.72
2019-05-26T10:04:22.970Z,34.42
2019-05-26T10:06:55.675Z,35.09
2019-05-26T10:09:28.421Z,35.69
2019-05-26T10:12:00.870Z,34.34
2019-05-26T10:14:33.800Z,34.24
2019-05-26T10:17:06.470Z,33.61
2019-05-26T10:19:39.236Z,33.13
2019-05-26T10:22:11.892Z,34.70
2019-05-26T10:24:44.506Z,33.47
2019-05-26T10:27:17.385Z,34.59
2019-05-26T10:29:50.095Z,34.07
2019-05-26T10:32:22.715Z,34.77
2019-05-26T10:34:55.160Z,32.48
2019-05-26T10:37:29.645Z,32.09
2019-05-26T10:40:02.414Z,33.46
2019-05-26T10:42:36.630Z,32.68
2019-05-26T10:45:11.562Z,35.33
2019-05-26T10:47:44.261Z,33.44
2019-05-26T10:50:18.335Z,33.17
2019-05-26T10:52:51.125Z,32.33
2019-05-26T10:55:23.422Z,31.23
2019-05-26T10:57:56.309Z,32.65
2019-05-26T11:00:32.814Z,30.85
2019-05-26T11:03:04.209Z,31.91
2019-05-26T11:05:36.596Z,33.35
2019-05-26T11:08:09.350Z,31.05
2019-05-26T11:10:41.740Z,30.47
2019-05-26T11:13:14.576Z,30.90
2019-05-26T11:15:47.836Z,30.70
2019-05-26T11:18:20.599Z,30.81
2019-05-26T11:20:53.281Z,33.08
2019-05-26T11:23:25.830Z,30.72
2019-05-26T11:25:59.469Z,30.70
2019-05-26T11:28:32.126Z,30.50
2019-05-26T11:31:04.741Z,31.31
2019-05-26T11:33:37.586Z,30.70
2019-05-26T11:36:09.975Z,31.12
2019-05-26T11:38:42.590Z,31.13
2019-05-26T11:41:15.766Z,31.27
2019-05-26T11:43:48.476Z,30.55
2019-05-26T11:46:21.187Z,31.35
2019-05-26T11:48:53.875Z,30.23
2019-05-26T11:51:26.458Z,31.83
2019-05-26T11:53:58.962Z,31.25
2019-05-26T11:56:31.496Z,31.26
2019-05-26T11:59:04.366Z,30.53
2019-05-26T12:01:37.214Z,31.68
2019-05-26T12:04:10.006Z,30.82
2019-05-26T12:06:42.427Z,31.94
2019-05-26T12:09:15.072Z,30.74
2019-05-26T12:11:47.610Z,32.28
2019-05-26T12:14:33.655Z,30.56
2019-05-26T12:16:54.490Z,30.50
2019-05-26T12:19:26.975Z,29.87
2019-05-26T12:21:59.455Z,28.79
2019-05-26T12:24:31.982Z,28.19
2019-05-26T12:27:04.555Z,29.36
2019-05-26T12:29:37.040Z,27.46
2019-05-26T12:32:09.585Z,28.91
2019-05-26T12:34:43.445Z,30.15
2019-05-26T12:37:16.134Z,29.98
2019-05-26T12:39:48.858Z,30.21
2019-05-26T12:42:21.410Z,29.14
2019-05-26T12:44:54.110Z,27.68
2019-05-26T12:47:26.635Z,29.55
2019-05-26T12:49:59.489Z,28.25
2019-05-26T12:52:32.130Z,28.71
2019-05-26T12:55:09.513Z,28.77
2019-05-26T12:57:40.792Z,29.35
2019-05-26T13:00:14.536Z,28.74
2019-05-26T13:02:47.867Z,29.72
2019-05-26T13:05:21.975Z,28.81
2019-05-26T13:07:54.555Z,29.20
2019-05-26T13:10:27.405Z,28.75
2019-05-26T13:12:59.905Z,29.51
2019-05-26T13:15:32.675Z,28.35
2019-05-26T13:18:05.281Z,28.27
2019-05-26T13:20:37.750Z,29.31
2019-05-26T13:23:10.335Z,29.62
2019-05-26T13:25:42.860Z,29.21
2019-05-26T13:28:15.422Z,30.82
2019-05-26T13:30:48.040Z,28.29
2019-05-26T13:33:20.648Z,29.82
2019-05-26T13:35:53.159Z,28.72
2019-05-26T13:38:25.695Z,29.40
2019-05-26T13:40:58.270Z,30.10
2019-05-26T13:43:30.972Z,29.33
2019-05-26T13:46:03.505Z,30.12
2019-05-26T13:48:36.167Z,29.80
2019-05-26T13:51:08.805Z,30.30
2019-05-26T13:53:41.480Z,29.57
2019-05-26T13:56:15.105Z,30.70
2019-05-26T13:58:47.630Z,30.14
2019-05-26T14:01:20.085Z,28.73
2019-05-26T14:03:52.686Z,28.54
2019-05-26T14:06:25.220Z,30.72
2019-05-26T14:08:57.965Z,30.13
2019-05-26T14:11:30.475Z,29.97
2019-05-26T14:14:04.800Z,29.19
2019-05-26T14:16:38.243Z,30.93
2019-05-26T14:19:10.835Z,29.77
2019-05-26T14:21:44.555Z,30.40
2019-05-26T14:24:17.413Z,31.75
2019-05-26T14:26:50.019Z,31.46
2019-05-26T14:29:22.905Z,31.98
2019-05-26T14:31:55.521Z,31.27
2019-05-26T14:34:28.212Z,29.78
2019-05-26T14:37:00.973Z,31.09
2019-05-26T14:39:34.141Z,30.57
2019-05-26T14:42:06.850Z,31.06
2019-05-26T14:44:39.320Z,31.74
2019-05-26T14:47:11.888Z,32.29
2019-05-26T14:49:44.450Z,32.73
2019-05-26T14:52:16.933Z,31.06
2019-05-26T14:54:49.841Z,31.41
2019-05-26T14:57:22.475Z,32.17
2019-05-26T14:59:55.008Z,32.48
2019-05-26T15:02:27.721Z,33.79
2019-05-26T15:05:00.156Z,32.93
2019-05-26T15:07:32.685Z,33.58
2019-05-26T15:10:08.775Z,32.42
2019-05-26T15:12:41.460Z,32.93
2019-05-26T15:15:14.466Z,32.13
2019-05-26T15:17:47.086Z,32.81
2019-05-26T15:20:20.174Z,33.58
2019-05-26T15:22:52.980Z,34.15
2019-05-26T15:25:25.631Z,33.61
2019-05-26T15:27:58.012Z,33.99
2019-05-26T15:30:30.510Z,33.45
2019-05-26T15:33:02.978Z,33.13
2019-05-26T15:35:35.335Z,34.09
2019-05-26T15:38:07.915Z,33.67
2019-05-26T15:40:40.326Z,34.82
2019-05-26T15:43:12.873Z,33.95
2019-05-26T15:45:45.490Z,33.47
2019-05-26T15:48:18.112Z,33.87
2019-05-26T15:50:52.065Z,34.23
2019-05-26T15:53:24.597Z,34.02
2019-05-26T15:55:57.170Z,33.92
2019-05-26T15:58:29.975Z,34.38
2019-05-26T16:01:02.400Z,34.89
2019-05-26T16:03:35.160Z,34.34
2019-05-26T16:06:07.890Z,34.89
2019-05-26T16:08:41.624Z,34.97
2019-05-26T16:11:14.586Z,35.92
2019-05-26T16:13:47.367Z,36.63
2019-05-26T16:16:19.927Z,35.90
2019-05-26T16:18:52.570Z,35.65
2019-05-26T16:21:28.373Z,36.66
2019-05-26T16:23:59.420Z,36.13
2019-05-26T16:26:32.050Z,35.58
2019-05-26T16:29:05.570Z,35.06
2019-05-26T16:31:38.072Z,36.33
2019-05-26T16:34:10.750Z,35.51
2019-05-26T16:36:43.468Z,36.32
2019-05-26T16:39:17.010Z,36.02
2019-05-26T16:41:49.526Z,37.69
2019-05-26T16:44:22.173Z,38.61
2019-05-26T16:46:56.822Z,37.89
2019-05-26T16:49:29.185Z,40.10
2019-05-26T16:52:02.805Z,40.47
2019-05-26T16:54:35.760Z,40.91
2019-05-26T16:57:08.501Z,39.77
2019-05-26T16:59:41.031Z,38.94
2019-05-26T17:02:13.970Z,39.58
2019-05-26T17:04:46.682Z,40.84
2019-05-26T17:07:19.172Z,38.49
2019-05-26T17:09:51.736Z,38.99
2019-05-26T17:12:24.490Z,39.88
2019-05-26T17:14:57.600Z,40.10
2019-05-26T17:17:30.181Z,39.55
2019-05-26T17:20:03.294Z,41.46
2019-05-26T17:22:37.460Z,39.65
2019-05-26T17:25:10.450Z,39.89
2019-05-26T17:27:43.176Z,39.46
2019-05-26T17:30:16.246Z,38.99
2019-05-26T17:32:48.795Z,39.26
2019-05-26T17:35:21.535Z,38.91
2019-05-26T17:37:55.551Z,39.00
2019-05-26T17:40:28.120Z,39.72
2019-05-26T17:43:00.636Z,40.21
2019-05-26T17:45:33.530Z,39.51
2019-05-26T17:48:06.091Z,40.81
2019-05-26T17:50:38.605Z,41.28
2019-05-26T17:53:11.015Z,40.94
2019-05-26T17:55:43.865Z,41.67
2019-05-26T17:58:16.376Z,41.93
2019-05-26T18:00:49.020Z,42.30
2019-05-26T18:03:21.710Z,42.04
2019-05-26T18:05:54.137Z,43.05
2019-05-26T18:08:27.797Z,43.55
2019-05-26T18:11:00.351Z,43.79
2019-05-26T18:13:32.839Z,44.06
2019-05-26T18:16:05.490Z,43.91
2019-05-26T18:18:38.139Z,44.19
2019-05-26T18:21:12.111Z,44.53
2019-05-26T18:23:44.722Z,44.66
2019-05-26T18:26:17.181Z,44.57
2019-05-26T18:28:50.031Z,44.26
2019-05-26T18:31:22.564Z,44.84
2019-05-26T18:33:55.371Z,45.05
2019-05-26T18:36:28.290Z,46.36
2019-05-26T18:39:01.205Z,46.58
2019-05-26T18:41:34.760Z,46.82
2019-05-26T18:44:07.686Z,47.09
2019-05-26T18:46:40.268Z,47.08
2019-05-26T18:49:13.834Z,47.08
2019-05-26T18:51:46.372Z,46.74
2019-05-26T18:54:19.065Z,47.35
2019-05-26T18:56:51.586Z,47.18
2019-05-26T18:59:24.185Z,49.37
2019-05-26T19:01:56.710Z,47.88
2019-05-26T19:04:29.310Z,48.91
2019-05-26T19:07:01.875Z,48.09
2019-05-26T19:09:34.760Z,49.02
2019-05-26T19:12:07.516Z,49.24
2019-05-26T19:14:40.672Z,48.98
2019-05-26T19:17:13.271Z,48.55
2019-05-26T19:19:46.010Z,49.76
2019-05-26T19:22:19.094Z,49.45
2019-05-26T19:24:51.795Z,48.75
2019-05-26T19:27:24.425Z,48.84
2019-05-26T19:29:57.246Z,49.30
2019-05-26T19:32:30.123Z,49.03
2019-05-26T19:35:03.055Z,49.10
2019-05-26T19:37:35.765Z,49.07
2019-05-26T19:40:11.017Z,49.35
2019-05-26T19:42:43.960Z,49.15
2019-05-26T19:45:16.998Z,48.94
2019-05-26T19:47:49.761Z,49.28
2019-05-26T19:50:22.306Z,49.23
2019-05-26T19:52:54.756Z,49.81
2019-05-26T19:55:27.450Z,50.31
2019-05-26T19:58:00.390Z,50.76
2019-05-26T20:00:33.122Z,50.98
2019-05-26T20:03:06.560Z,51.68
2019-05-26T20:05:39.281Z,51.77
2019-05-26T20:08:13.125Z,51.34
2019-05-26T20:10:45.965Z,51.11
2019-05-26T20:13:18.485Z,51.23
2019-05-26T20:15:51.311Z,51.67
2019-05-26T20:18:23.846Z,52.21
2019-05-26T20:20:56.675Z,52.16
2019-05-26T20:23:29.498Z,51.91
2019-05-26T20:26:02.050Z,52.02
2019-05-26T20:28:35.865Z,51.88
2019-05-26T20:31:08.425Z,52.64
2019-05-26T20:33:41.012Z,53.56
2019-05-26T20:36:13.596Z,53.93
2019-05-26T20:38:46.175Z,54.04
2019-05-26T20:41:18.770Z,54.24
2019-05-26T20:43:51.630Z,53.55
2019-05-26T20:46:24.483Z,53.77
2019-05-26T20:48:57.100Z,54.02
2019-05-26T20:51:29.840Z,54.18
2019-05-26T20:54:02.254Z,54.57
2019-05-26T20:56:34.815Z,53.81
2019-05-26T20:59:07.305Z,54.35
2019-05-26T21:01:40.046Z,54.50
2019-05-26T21:04:12.745Z,54.59
2019-05-26T21:06:45.670Z,54.80
2019-05-26T21:09:18.561Z,54.59
2019-05-26T21:11:51.425Z,54.84
2019-05-26T21:14:25.221Z,54.49
2019-05-26T21:16:57.960Z,55.36
2019-05-26T21:19:31.800Z,55.52
2019-05-26T21:22:04.621Z,55.71
2019-05-26T21:24:37.101Z,55.68
2019-05-26T21:27:09.646Z,56.01
2019-05-26T21:29:42.231Z,57.36
2019-05-26T21:32:14.922Z,57.28
2019-05-26T21:34:47.182Z,57.37
2019-05-26T21:37:20.040Z,58.34
2019-05-26T21:39:52.420Z,58.10
2019-05-26T21:42:24.890Z,57.88
2019-05-26T21:44:57.574Z,57.90
2019-05-26T21:47:30.186Z,58.39
2019-05-26T21:50:02.743Z,58.25
2019-05-26T21:52:35.514Z,58.27
2019-05-26T21:55:08.485Z,59.07
2019-05-26T21:57:41.071Z,58.89
2019-05-26T22:00:15.932Z,59.72
2019-05-26T22:02:51.306Z,59.07
2019-05-26T22:05:23.880Z,59.27
2019-05-26T22:07:56.257Z,59.06
2019-05-26T22:10:28.805Z,59.30
2019-05-26T22:13:01.329Z,59.39
2019-05-26T22:15:34.130Z,59.58
2019-05-26T22:18:07.010Z,59.59
2019-05-26T22:20:39.365Z,60.28
2019-05-26T22:23:12.270Z,60.20
2019-05-26T22:25:45.015Z,60.23
2019-05-26T22:28:17.591Z,60.95
2019-05-26T22:30:49.975Z,61.13
2019-05-26T22:33:22.450Z,61.86
2019-05-26T22:35:55.061Z,61.76
2019-05-26T22:38:27.807Z,61.63
2019-05-26T22:41:01.526Z,61.78
2019-05-26T22:43:34.001Z,62.50
2019-05-26T22:46:06.396Z,62.32
2019-05-26T22:48:38.835Z,62.45
2019-05-26T22:51:11.650Z,62.81
2019-05-26T22:53:43.992Z,62.83
2019-05-26T22:56:16.751Z,63.20
2019-05-26T22:58:49.476Z,63.00
2019-05-26T23:01:21.993Z,62.99
2019-05-26T23:03:54.625Z,63.08
2019-05-26T23:06:27.793Z,62.85
2019-05-26T23:09:00.093Z,63.63
2019-05-26T23:11:33.970Z,63.40
2019-05-26T23:14:07.902Z,63.64
2019-05-26T23:16:41.755Z,63.97
2019-05-26T23:19:19.472Z,64.04
2019-05-26T23:21:50.111Z,63.92
2019-05-26T23:24:23.825Z,64.14
2019-05-26T23:26:57.810Z,64.60
2019-05-26T23:29:31.665Z,64.58
2019-05-26T23:32:05.710Z,64.59
2019-05-26T23:34:39.477Z,64.56
2019-05-26T23:37:13.340Z,64.95
2019-05-26T23:39:47.095Z,65.07
2019-05-26T23:42:20.920Z,65.20
2019-05-26T23:44:53.326Z,65.45
2019-05-26T23:47:25.761Z,65.17
2019-05-26T23:49:58.131Z,65.70
2019-05-26T23:52:30.830Z,66.43
2019-05-26T23:55:04.400Z,66.40
2019-05-26T23:57:36.797Z,66.36
